Historyczne dane pomiarowe

Dodano dane terminowe – wersja testowa.

Dane z okresu 1951-2019

Wersja bazy: 1.34 [2019-03-16, lista zmian], aktualizacja planowana na 2019-04-15

Dane meteo z obszaru Polski uzyskane na podstawie danych udostępnionych przez Instytut Meteorologii i Gospodarki Wodnej – Państwowy Instytut Badawczy.

 

Wybierz Datę:    

       

TemperaturaWilgotnośćWiatrCiśnienieOpadyŚniegCzas trwania zjawisk
 Stacja t tx tn tng RH VA  wxwx mslp ppp RRR   cm mm wxwxwxwxwxwxwx
2002-01-14 -1.9 -1.4 -2.5 -6.8 88.5- 6.7 1.3---- 0.0-- 4---------
2002-01-15 -7.9 -1.2-10.8-17.1 86.0- 0.3 0.3---- 0.0-- 4---------
2002-01-16 -9.5 -1.8-15.9-18.4 89.8- 0.0 1.0---- 0.0-- 4---------
2002-01-17 -6.9 -1.9-11.8-17.9 86.0- 5.7 0.7---- 0.0-- 4---------
2002-01-18 -6.3 1.5-12.6-18.3 86.8- 1.0 2.0---- 0.0-- 3---------
2002-01-19 0.6 3.8 -3.4-11.0 82.8- 6.3 3.7---- 0.2-- 3---------
2002-01-20 3.8 4.9 2.7 0.1 91.0- 5.3 4.7---- 0.9-- 2---------
2002-01-21 5.4 7.6 3.7 2.0 94.0- 7.3 6.0---- 5.1------------
2002-01-22 7.4 12.8 3.2 -1.9 91.5- 1.7 1.3---- 0.0------------
2002-01-23 6.0 8.4 3.7 0.1 83.3- 3.3 3.7---- 0.0------------
2002-01-24 6.6 8.3 5.6 3.0 76.5- 7.3 4.0---- 0.0------------
2002-01-25 4.2 8.4 1.7 -2.4 81.8- 2.7 3.0---- 0.0------------
2002-01-26 5.6 9.4 -1.8 -6.2 76.8- 6.3 3.0---- 0.0------------
2002-01-27 8.9 10.9 7.0 4.5 74.0- 7.3 7.0---- 0.1------------
2002-01-28 8.6 13.2 3.8 0.1 88.0- 6.3 3.0---- 1.2------------
2002-01-29 10.0 13.3 8.1 3.6 52.3- 3.3 6.3---- 0.0------------
2002-01-30 7.6 11.9 4.8 0.1 75.5- 2.0 4.0---- 0.0------------
2002-01-31 7.1 13.5 2.9 -1.5 64.8- 4.3 2.0---- 0.0------------
2002-02-01 3.3 10.5 -2.1 -7.3 82.5- 2.7 1.7---- 0.0------------
2002-02-02 7.1 14.5 2.9 -2.4 77.8- 3.0 0.3---- 0.0------------
2002-02-03 9.2 15.3 3.0 -1.4 41.0- 0.7 2.7---- 0.0------------
2002-02-04 7.3 12.4 4.8 -0.8 67.0- 0.7 2.0---- 0.0------------
2002-02-05 5.5 13.3 -1.6 -6.3 64.0- 2.7 1.0---- 0.0------------
2002-02-06 7.5 11.4 5.8 1.3 65.5- 8.0 0.3---- 0.5------------
2002-02-07 5.1 9.4 2.7 -1.9 89.0- 7.7 0.3---- 0.3------------
2002-02-08 6.4 8.2 4.8 2.1 71.8- 5.3 4.3---- 1.9------------
2002-02-09 8.7 10.9 5.3 0.3 73.0- 7.3 4.0---- 2.0------------
2002-02-10 7.4 11.4 5.5 3.5 78.8- 5.3 5.0---- 1.5------------
2002-02-11 7.3 9.4 5.0 2.7 76.5- 8.0 6.3---- 2.0------------
2002-02-12 10.4 11.8 8.9 6.6 70.3- 7.0 8.3---- 5.0------------
2151.4 ms

 

Źródłem pochodzenia danych jest Instytut Meteorologii i Gospodarki Wodnej – Państwowy Instytut Badawczy. Dane Instytutu Meteorologii i Gospodarki Wodnej – Państwowego Instytutu Badawczego zostały przetworzone.

Dane źródłowe można odnaleźć na stronie https://dane.imgw.pl